createdAt,value
2023-05-02T00:02:48.588Z,4.60
2023-05-02T00:07:52.570Z,2.65
2023-05-02T00:12:54.533Z,2.30
2023-05-02T00:17:56.637Z,1.90
2023-05-02T00:22:59.987Z,2.08
2023-05-02T00:28:02.131Z,2.08
2023-05-02T00:33:06.884Z,3.33
2023-05-02T00:38:10.440Z,1.10
2023-05-02T00:43:12.501Z,1.75
2023-05-02T00:48:14.741Z,2.25
2023-05-02T00:53:18.208Z,3.00
2023-05-02T00:58:20.780Z,1.90
2023-05-02T01:03:36.971Z,3.00
2023-05-02T01:08:47.291Z,3.30
2023-05-02T01:13:53.076Z,2.28
2023-05-02T01:18:57.357Z,2.35
2023-05-02T01:24:06.951Z,4.40
2023-05-02T01:29:12.565Z,2.13
2023-05-02T01:34:15.711Z,4.90
2023-05-02T01:39:20.803Z,2.47
2023-05-02T01:44:25.437Z,1.52
2023-05-02T01:49:29.426Z,2.42
2023-05-02T01:54:33.374Z,2.28
2023-05-02T01:59:40.437Z,3.08
2023-05-02T02:04:43.602Z,1.50
2023-05-02T02:09:45.650Z,3.53
2023-05-02T02:14:56.090Z,2.97
2023-05-02T02:20:03.429Z,2.33
2023-05-02T02:25:07.981Z,2.10
2023-05-02T02:30:12.112Z,2.70
2023-05-02T02:35:14.225Z,1.60
2023-05-02T02:40:23.333Z,1.40
2023-05-02T02:45:35.343Z,1.48
2023-05-02T02:50:44.072Z,1.75
2023-05-02T02:55:52.169Z,2.15
2023-05-02T03:00:56.498Z,1.88
2023-05-02T03:05:59.441Z,1.45
2023-05-02T03:11:01.483Z,3.00
2023-05-02T03:16:31.309Z,1.88
2023-05-02T03:21:34.384Z,2.15
2023-05-02T03:26:36.354Z,4.85
2023-05-02T03:31:39.873Z,2.35
2023-05-02T03:36:42.053Z,2.80
2023-05-02T03:41:44.201Z,2.20
2023-05-02T03:46:48.243Z,1.88
2023-05-02T03:51:50.223Z,3.90
2023-05-02T03:56:53.614Z,2.83
2023-05-02T04:01:56.905Z,4.30
2023-05-02T04:06:58.838Z,1.13
2023-05-02T04:12:01.328Z,1.20
2023-05-02T04:22:12.342Z,1.55
2023-05-02T04:27:15.402Z,2.75
2023-05-02T04:32:18.906Z,2.72
2023-05-02T04:37:21.276Z,2.22
2023-05-02T04:47:26.618Z,2.05
2023-05-02T04:52:29.966Z,2.38
2023-05-02T04:57:31.936Z,3.05
2023-05-02T05:02:35.433Z,5.20
2023-05-02T05:07:37.590Z,2.75
2023-05-02T05:12:39.590Z,2.90
2023-05-02T05:17:43.026Z,2.13
2023-05-02T05:22:45.032Z,2.42
2023-05-02T05:27:47.146Z,2.20
2023-05-02T05:32:50.530Z,3.17
2023-05-02T05:37:53.244Z,2.90
2023-05-02T05:42:55.192Z,2.17
2023-05-02T05:47:58.647Z,2.40
2023-05-02T05:53:01.411Z,2.10
2023-05-02T05:58:03.704Z,3.03
2023-05-02T06:08:12.124Z,2.30
2023-05-02T06:13:14.111Z,2.35
2023-05-02T06:18:17.652Z,3.10
2023-05-02T06:23:19.923Z,3.70
2023-05-02T06:33:24.986Z,3.47
2023-05-02T06:38:26.996Z,2.75
2023-05-02T06:43:28.962Z,2.65
2023-05-02T06:48:32.314Z,4.18
2023-05-02T06:53:34.528Z,2.55
2023-05-02T07:03:39.777Z,3.15
2023-05-02T07:08:41.820Z,2.72
2023-05-02T07:13:43.767Z,3.42
2023-05-02T07:18:47.059Z,3.05
2023-05-02T07:23:49.013Z,2.55
2023-05-02T07:28:50.977Z,5.55
2023-05-02T07:33:54.428Z,4.53
2023-05-02T07:38:56.506Z,4.00
2023-05-02T07:43:58.575Z,2.90
2023-05-02T07:54:14.507Z,5.60
2023-05-02T07:59:16.464Z,3.53
2023-05-02T08:04:20.008Z,3.50
2023-05-02T08:09:22.168Z,4.30
2023-05-02T08:14:24.113Z,3.03
2023-05-02T08:19:27.927Z,3.55
2023-05-02T08:24:31.205Z,5.18
2023-05-02T08:29:33.281Z,4.55
2023-05-02T08:39:38.760Z,5.97
2023-05-02T08:49:45.932Z,3.05
2023-05-02T08:54:49.318Z,3.17
2023-05-02T08:59:51.315Z,3.00
2023-05-02T09:04:58.315Z,3.08
2023-05-02T09:10:00.702Z,3.65
2023-05-02T09:15:13.215Z,4.88
2023-05-02T09:20:17.094Z,2.83
2023-05-02T09:25:20.749Z,3.35
2023-05-02T09:30:24.897Z,3.30
2023-05-02T09:35:28.405Z,3.35
2023-05-02T09:40:32.518Z,4.60
2023-05-02T09:45:34.490Z,6.57
2023-05-02T09:50:38.758Z,3.30
2023-05-02T09:55:40.764Z,3.75
2023-05-02T10:00:44.785Z,4.15
2023-05-02T10:05:48.117Z,3.10
2023-05-02T10:10:55.859Z,4.03
2023-05-02T10:16:00.664Z,5.07
2023-05-02T10:21:08.793Z,3.10
2023-05-02T10:31:15.365Z,3.92
2023-05-02T10:36:22.420Z,3.05
2023-05-02T10:41:26.828Z,3.83
2023-05-02T10:46:33.498Z,5.32
2023-05-02T10:51:38.478Z,4.20
2023-05-02T10:57:05.649Z,6.78
2023-05-02T11:02:48.735Z,7.88
2023-05-02T11:08:30.595Z,7.65
2023-05-02T11:13:51.309Z,5.07
2023-05-02T11:19:01.637Z,11.38
2023-05-02T11:24:42.126Z,5.35
2023-05-02T11:29:51.984Z,4.70
2023-05-02T11:34:55.589Z,10.90
2023-05-02T11:40:12.115Z,15.90
2023-05-02T11:45:14.275Z,11.80
2023-05-02T11:50:16.851Z,27.38
2023-05-02T11:55:20.229Z,48.47
2023-05-02T12:00:27.744Z,37.17
2023-05-02T12:05:30.389Z,6.22
2023-05-02T12:10:37.790Z,5.80
2023-05-02T12:15:40.078Z,5.05
2023-05-02T12:20:47.036Z,21.45
2023-05-02T12:26:18.214Z,64.10
2023-05-02T12:31:20.733Z,9.52
2023-05-02T12:36:23.079Z,4.93
2023-05-02T12:41:33.733Z,7.97
2023-05-02T12:46:36.637Z,8.25
2023-05-02T12:51:39.732Z,8.48
2023-05-02T12:56:44.061Z,4.05
2023-05-02T13:01:46.059Z,5.43
2023-05-02T13:06:48.098Z,4.65
2023-05-02T13:16:57.419Z,5.90
2023-05-02T13:21:59.711Z,3.45
2023-05-02T13:32:05.514Z,6.95
2023-05-02T13:37:07.633Z,6.38
2023-05-02T13:42:10.933Z,6.68
2023-05-02T13:47:12.884Z,5.43
2023-05-02T13:52:14.994Z,9.70
2023-05-02T13:57:18.363Z,9.13
2023-05-02T14:02:20.918Z,8.13
2023-05-02T14:07:23.270Z,10.05
2023-05-02T14:12:26.643Z,9.02
2023-05-02T14:17:30.142Z,10.20
2023-05-02T14:22:32.310Z,12.35
2023-05-02T14:27:36.408Z,11.18
2023-05-02T14:32:38.541Z,21.67
2023-05-02T14:37:40.910Z,9.40
2023-05-02T14:47:47.142Z,11.98
2023-05-02T14:52:49.144Z,10.85
2023-05-02T14:57:52.932Z,10.30
2023-05-02T15:02:55.107Z,17.25
2023-05-02T15:07:57.144Z,12.98
2023-05-02T15:13:00.647Z,12.93
2023-05-02T15:18:02.875Z,4.15
2023-05-02T15:23:04.908Z,13.40
2023-05-02T15:28:08.295Z,11.50
2023-05-02T15:33:10.471Z,13.27
2023-05-02T15:38:12.445Z,12.32
2023-05-02T15:43:18.559Z,14.55
2023-05-02T15:48:21.020Z,10.88
2023-05-02T15:53:23.296Z,11.45
2023-05-02T15:58:26.607Z,10.27
2023-05-02T16:03:28.693Z,10.05
2023-05-02T16:08:30.983Z,10.38
2023-05-02T16:13:34.422Z,11.32
2023-05-02T16:18:36.384Z,11.52
2023-05-02T16:23:38.339Z,8.38
2023-05-02T16:28:41.801Z,10.15
2023-05-02T16:33:43.803Z,7.97
2023-05-02T16:38:46.173Z,7.30
2023-05-02T16:43:51.013Z,8.73
2023-05-02T16:48:53.116Z,8.57
2023-05-02T16:53:55.080Z,7.15
2023-05-02T16:58:58.466Z,7.32
2023-05-02T17:04:00.513Z,7.72
2023-05-02T17:09:03.729Z,7.18
2023-05-02T17:14:07.073Z,6.40
2023-05-02T17:19:09.040Z,8.10
2023-05-02T17:24:11.289Z,6.75
2023-05-02T17:29:14.986Z,5.43
2023-05-02T17:34:16.985Z,8.23
2023-05-02T17:39:19.099Z,7.55
2023-05-02T17:44:22.512Z,8.38
2023-05-02T17:49:24.453Z,67.18
2023-05-02T17:54:26.734Z,21.15
2023-05-02T17:59:30.106Z,12.55
2023-05-02T18:04:32.077Z,9.45
2023-05-02T18:09:34.076Z,8.77
2023-05-02T18:14:37.351Z,11.30
2023-05-02T18:19:39.348Z,14.38
2023-05-02T18:24:41.692Z,9.57
2023-05-02T18:29:45.100Z,9.60
2023-05-02T18:34:48.297Z,6.35
2023-05-02T18:39:50.429Z,8.80
2023-05-02T18:44:53.856Z,8.18
2023-05-02T18:49:59.389Z,8.63
2023-05-02T18:55:03.214Z,14.80
2023-05-02T19:00:08.220Z,14.57
2023-05-02T19:05:10.758Z,10.05
2023-05-02T19:10:12.797Z,8.23
2023-05-02T19:15:16.497Z,6.25
2023-05-02T19:20:18.820Z,6.38
2023-05-02T19:25:21.202Z,10.25
2023-05-02T19:30:24.882Z,11.13
2023-05-02T19:35:27.667Z,10.48
2023-05-02T19:50:35.657Z,5.93
2023-05-02T19:55:37.699Z,12.45
2023-05-02T20:00:43.813Z,9.57
2023-05-02T20:05:45.777Z,10.80
2023-05-02T20:10:47.896Z,16.50
2023-05-02T20:15:52.824Z,11.90
2023-05-02T20:20:55.095Z,12.25
2023-05-02T20:25:57.317Z,16.10
2023-05-02T20:31:01.806Z,15.45
2023-05-02T20:36:04.098Z,19.17
2023-05-02T20:41:10.541Z,18.77
2023-05-02T20:46:16.504Z,19.33
2023-05-02T20:51:18.616Z,28.13
2023-05-02T20:56:20.996Z,26.55
2023-05-02T21:01:25.432Z,35.90
2023-05-02T21:06:27.518Z,36.38
2023-05-02T21:11:29.673Z,19.90
2023-05-02T21:16:33.171Z,19.13
2023-05-02T21:21:35.227Z,14.55
2023-05-02T21:26:37.268Z,16.73
2023-05-02T21:31:40.677Z,17.40
2023-05-02T21:36:43.327Z,18.98
2023-05-02T21:41:45.327Z,24.27
2023-05-02T21:46:48.684Z,12.65
2023-05-02T21:51:50.644Z,14.40
2023-05-02T21:56:53.102Z,14.45
2023-05-02T22:01:57.314Z,17.05
2023-05-02T22:06:59.395Z,20.67
2023-05-02T22:12:01.391Z,15.73
2023-05-02T22:17:05.010Z,12.52
2023-05-02T22:22:07.217Z,14.60
2023-05-02T22:27:09.286Z,18.98
2023-05-02T22:32:12.602Z,15.55
2023-05-02T22:37:14.616Z,13.60
2023-05-02T22:42:16.625Z,14.52
2023-05-02T22:47:21.236Z,14.85
2023-05-02T22:52:23.186Z,12.63
2023-05-02T22:57:25.129Z,14.05
2023-05-02T23:02:28.658Z,13.45
2023-05-02T23:07:30.793Z,15.18
2023-05-02T23:17:38.929Z,10.75
2023-05-02T23:22:44.197Z,10.48
2023-05-02T23:27:46.097Z,9.95
2023-05-02T23:32:49.560Z,8.45
2023-05-02T23:37:52.582Z,15.63
2023-05-02T23:42:54.598Z,14.07
2023-05-02T23:47:57.911Z,15.57
2023-05-02T23:52:59.954Z,10.88
2023-05-02T23:58:02.154Z,9.00
